Home   Weather   Ely   Past weeks
Flag for USA

Past Weather in Ely, Minnesota, USA — Yesterday and Last 2 Weeks

Currently: 1 °F. Sunny. (Weather station: Sky Harbor Airport, USA). See more current weather

Past Weather in Ely — Graph

°F

Ely Temperature Yesterday

Maximum temperature yesterday: 3 °F (at 1:15 pm)
Minimum temperature yesterday: -13 °F (at 7:55 am)
Average temperature yesterday: -3 °F

High & Low Weather Summary for the Past Weeks

 TemperatureHumidityPressure
High37 °F (Jan 15, 4:15 pm)100% (Jan 15, 8:55 pm)30.43 "Hg (Jan 15, 8:55 pm)
Low-13 °F (Jan 29, 7:55 am)46% (Jan 30, 2:15 pm)29.36 "Hg (Jan 27, 5:55 am)
Average20 °F81%29.95 "Hg
* Reported Jan 15 4:15 pm — Jan 30 4:15 pm, Ely. Weather by CustomWeather, © 2023

Note: Actual official high and low records may vary slightly from our data, if they occured in-between our weather recording intervals... More about our weather records

Ely Weather History for the Previous 24 Hours

Scroll right to see more
 ConditionsComfort  
Time TempWeatherWind HumidityBarometerVisibility
4:15 pm
Mon, Jan 30
1 °FSunny.15 mph46%30.36 "Hg10 mi
3:35 pm1 °FSunny.16 mph46%30.36 "Hg10 mi
3:15 pm1 °FSunny.15 mph50%30.36 "Hg10 mi
2:35 pm1 °FSunny.15 mph46%30.35 "Hg10 mi
2:15 pm1 °FSunny.16 mph46%30.35 "Hg10 mi
1:35 pm0 °FSunny.15 mph50%30.37 "Hg10 mi
1:15 pm0 °FSunny.12 mph50%30.37 "Hg10 mi
1:00 pm0 °FSunny.16 mph50%30.38 "Hg10 mi
12:15 pm-2 °FSunny.13 mph49%30.39 "Hg10 mi
11:55 am-2 °FSunny.16 mph49%30.40 "Hg10 mi
11:35 am-4 °FSunny.14 mph59%30.40 "Hg10 mi
10:55 am-6 °FSunny.13 mph59%30.41 "Hg10 mi
10:15 am-9 °FSunny.13 mph70%30.41 "Hg10 mi
9:55 am-11 °FSunny.10 mph70%30.41 "Hg10 mi
9:35 am-11 °FSunny.9 mph70%30.41 "Hg10 mi
9:15 am-11 °FSunny.12 mph70%30.41 "Hg10 mi
8:35 am-13 °FSunny.12 mph76%30.41 "Hg10 mi
8:15 am-13 °FSunny.12 mph76%30.41 "Hg10 mi
7:55 am-13 °FSunny.10 mph69%30.40 "Hg10 mi
7:35 am-13 °FSunny.9 mph76%30.40 "Hg10 mi
6:55 am-13 °FClear.10 mph76%30.40 "Hg10 mi
6:15 am-11 °FClear.8 mph76%30.39 "Hg10 mi
5:55 am-9 °FClear.9 mph70%30.39 "Hg10 mi
5:35 am-9 °FClear.9 mph70%30.39 "Hg10 mi
5:15 am-9 °FClear.8 mph70%30.38 "Hg10 mi
4:55 am-9 °FClear.9 mph77%30.38 "Hg10 mi
4:35 am-9 °FClear.9 mph77%30.38 "Hg10 mi
3:55 am-8 °FClear.10 mph70%30.38 "Hg10 mi
3:35 am-8 °FClear.10 mph70%30.38 "Hg10 mi
3:15 am-8 °FClear.14 mph70%30.38 "Hg10 mi
2:55 am-6 °FPassing clouds.14 mph70%30.38 "Hg10 mi
2:35 am-6 °FPassing clouds.16 mph70%30.38 "Hg10 mi
2:15 am-6 °FPassing clouds.14 mph70%30.37 "Hg10 mi
1:35 am-4 °FOvercast.12 mph71%30.36 "Hg10 mi
1:15 am-4 °FLight snow. Partly cloudy.10 mph71%30.35 "Hg9 mi
12:15 am-2 °FOvercast.10 mph71%30.36 "Hg10 mi
11:55 pm
Sun, Jan 29
-2 °FMostly cloudy.12 mph71%30.35 "Hg10 mi
11:35 pm0 °FMostly cloudy.14 mph65%30.35 "Hg10 mi
11:15 pm0 °FMostly cloudy.10 mph65%30.35 "Hg10 mi
10:55 pm0 °FPassing clouds.9 mph65%30.35 "Hg10 mi
10:35 pm0 °FPartly cloudy.10 mph65%30.34 "Hg10 mi
10:15 pm0 °FPassing clouds.9 mph65%30.34 "Hg10 mi
9:55 pm0 °FOvercast.8 mph65%30.34 "Hg10 mi
9:35 pm0 °FOvercast.9 mph60%30.35 "Hg10 mi
9:15 pm-2 °FOvercast.8 mph65%30.34 "Hg10 mi
8:55 pm-2 °FPartly cloudy.9 mph65%30.34 "Hg10 mi
8:35 pm0 °FPartly cloudy.9 mph60%30.34 "Hg10 mi
8:15 pm0 °FPartly cloudy.9 mph60%30.34 "Hg10 mi
7:35 pm0 °FPassing clouds.8 mph60%30.34 "Hg10 mi
7:15 pm0 °FPassing clouds.8 mph60%30.34 "Hg10 mi
5:35 pm1 °FClear.8 mph60%30.34 "Hg10 mi
Weather by CustomWeather, © 2023

See weather overview